Pagrindinis puslapis
METAR-TAF:

METAR-TAF

Oro uostai :

Reyes, Bolivija

platuma: 14-19S, ilguma: 067-23W, Aukštis: 140 m

Dabartinis oras

Ataskaita buvo paskelbta 4 valandos ir 51 minutes, ne 22:00 UTC
Vėjas 3 kt iš Šiaurės Vakarų
Temperatūra 35°C
Drėgmė 47%
Slėgis 1007 hPa
Matomumas: 6000 m

METAR: SLRY 202200Z 32003KT 6000 NSC 35/22 Q1007

Laikas: 22:51 (02:51 UTC)


TAF: trūkstamas

Orai ataskaitas ir orų prognozės (METAR, TAF).

turimą stotys yra geltonos ir raudonos taškus žemėlapyje.

Perkelti pele per norėdami pamatyti stoties vardą.

Tada spustelėkite, norėdami matyti oro stebėjimo ir prognozės.

Norėdami pakeisti žemėlapį: spustelėkite ant žalios mygtukų su juodo kryžiaus žemyn,; žalią mygtuką su brūkšneliu, jei norite nutolinti; arba žalių rodyklių gretimoms žemėlapius.


METAR-TAF: